sensor_id;sensor_type;location;lat;lon;timestamp;P1;durP1;ratioP1;P2;durP2;ratioP2
55493;SDS011;41355;50.390;19.096;2022-12-07T00:01:11;91.15;;;32.17;;
55493;SDS011;41355;50.390;19.096;2022-12-07T00:03:37;55.72;;;22.52;;
55493;SDS011;41355;50.390;19.096;2022-12-07T00:06:04;30.70;;;12.77;;
55493;SDS011;41355;50.390;19.096;2022-12-07T00:08:31;67.93;;;23.98;;
55493;SDS011;41355;50.390;19.096;2022-12-07T00:11:07;75.70;;;29.58;;
55493;SDS011;41355;50.390;19.096;2022-12-07T00:13:33;64.43;;;25.58;;
55493;SDS011;41355;50.390;19.096;2022-12-07T00:16:04;69.20;;;23.95;;
55493;SDS011;41355;50.390;19.096;2022-12-07T00:18:30;77.07;;;26.38;;
55493;SDS011;41355;50.390;19.096;2022-12-07T00:21:16;54.83;;;21.45;;
55493;SDS011;41355;50.390;19.096;2022-12-07T00:23:42;76.85;;;26.83;;
55493;SDS011;41355;50.390;19.096;2022-12-07T00:26:13;34.13;;;12.55;;
55493;SDS011;41355;50.390;19.096;2022-12-07T00:28:39;64.13;;;23.17;;
55493;SDS011;41355;50.390;19.096;2022-12-07T00:31:07;52.92;;;20.65;;
55493;SDS011;41355;50.390;19.096;2022-12-07T00:33:34;58.30;;;23.73;;
55493;SDS011;41355;50.390;19.096;2022-12-07T00:36:01;19.65;;;8.43;;
55493;SDS011;41355;50.390;19.096;2022-12-07T00:38:28;58.60;;;21.25;;
55493;SDS011;41355;50.390;19.096;2022-12-07T00:40:58;50.38;;;18.90;;
55493;SDS011;41355;50.390;19.096;2022-12-07T00:43:24;58.35;;;21.30;;
55493;SDS011;41355;50.390;19.096;2022-12-07T00:45:51;89.20;;;31.38;;
55493;SDS011;41355;50.390;19.096;2022-12-07T00:48:17;73.38;;;24.17;;
55493;SDS011;41355;50.390;19.096;2022-12-07T00:50:43;95.75;;;29.17;;
55493;SDS011;41355;50.390;19.096;2022-12-07T00:53:09;60.90;;;19.50;;
55493;SDS011;41355;50.390;19.096;2022-12-07T00:55:35;56.78;;;20.83;;
55493;SDS011;41355;50.390;19.096;2022-12-07T00:58:02;59.65;;;19.73;;
55493;SDS011;41355;50.390;19.096;2022-12-07T01:00:28;54.45;;;18.60;;
55493;SDS011;41355;50.390;19.096;2022-12-07T01:02:54;83.20;;;26.33;;
55493;SDS011;41355;50.390;19.096;2022-12-07T01:05:20;70.28;;;22.02;;
55493;SDS011;41355;50.390;19.096;2022-12-07T01:07:46;33.03;;;14.48;;
55493;SDS011;41355;50.390;19.096;2022-12-07T01:10:12;45.38;;;15.60;;
55493;SDS011;41355;50.390;19.096;2022-12-07T01:12:39;64.70;;;19.38;;
55493;SDS011;41355;50.390;19.096;2022-12-07T01:15:05;16.90;;;5.25;;
55493;SDS011;41355;50.390;19.096;2022-12-07T01:17:32;25.83;;;9.98;;
55493;SDS011;41355;50.390;19.096;2022-12-07T01:19:58;49.92;;;16.05;;
55493;SDS011;41355;50.390;19.096;2022-12-07T01:22:24;43.42;;;15.43;;
55493;SDS011;41355;50.390;19.096;2022-12-07T01:24:50;36.25;;;11.20;;
55493;SDS011;41355;50.390;19.096;2022-12-07T01:27:16;50.35;;;17.77;;
55493;SDS011;41355;50.390;19.096;2022-12-07T01:29:42;52.45;;;17.88;;
55493;SDS011;41355;50.390;19.096;2022-12-07T01:32:08;33.80;;;11.40;;
55493;SDS011;41355;50.390;19.096;2022-12-07T01:34:34;20.50;;;8.45;;
55493;SDS011;41355;50.390;19.096;2022-12-07T01:37:00;56.97;;;19.75;;
55493;SDS011;41355;50.390;19.096;2022-12-07T01:39:26;74.13;;;22.15;;
55493;SDS011;41355;50.390;19.096;2022-12-07T01:41:52;59.92;;;19.35;;
55493;SDS011;41355;50.390;19.096;2022-12-07T01:44:28;55.90;;;19.38;;
55493;SDS011;41355;50.390;19.096;2022-12-07T01:46:56;58.28;;;20.38;;
55493;SDS011;41355;50.390;19.096;2022-12-07T01:49:26;17.52;;;6.07;;
55493;SDS011;41355;50.390;19.096;2022-12-07T01:51:55;57.13;;;19.33;;
55493;SDS011;41355;50.390;19.096;2022-12-07T01:54:22;65.30;;;22.23;;
55493;SDS011;41355;50.390;19.096;2022-12-07T01:56:50;50.53;;;18.20;;
55493;SDS011;41355;50.390;19.096;2022-12-07T01:59:17;29.83;;;13.00;;
55493;SDS011;41355;50.390;19.096;2022-12-07T02:01:44;92.20;;;29.55;;
55493;SDS011;41355;50.390;19.096;2022-12-07T02:04:10;25.33;;;10.88;;
55493;SDS011;41355;50.390;19.096;2022-12-07T02:06:36;38.35;;;15.38;;
55493;SDS011;41355;50.390;19.096;2022-12-07T02:09:03;59.83;;;20.95;;
55493;SDS011;41355;50.390;19.096;2022-12-07T02:11:29;66.35;;;23.20;;
55493;SDS011;41355;50.390;19.096;2022-12-07T02:13:55;91.57;;;27.88;;
55493;SDS011;41355;50.390;19.096;2022-12-07T02:21:44;97.40;;;29.67;;
55493;SDS011;41355;50.390;19.096;2022-12-07T02:26:47;64.63;;;20.50;;
55493;SDS011;41355;50.390;19.096;2022-12-07T02:31:55;89.55;;;24.98;;
55493;SDS011;41355;50.390;19.096;2022-12-07T02:37:10;48.22;;;21.88;;
55493;SDS011;41355;50.390;19.096;2022-12-07T02:39:46;29.10;;;9.90;;
55493;SDS011;41355;50.390;19.096;2022-12-07T02:42:15;52.72;;;18.48;;
55493;SDS011;41355;50.390;19.096;2022-12-07T02:44:42;56.28;;;19.58;;
55493;SDS011;41355;50.390;19.096;2022-12-07T02:47:10;95.82;;;29.00;;
55493;SDS011;41355;50.390;19.096;2022-12-07T02:49:38;83.60;;;25.02;;
55493;SDS011;41355;50.390;19.096;2022-12-07T02:52:05;98.53;;;29.58;;
55493;SDS011;41355;50.390;19.096;2022-12-07T02:54:31;54.65;;;18.88;;
55493;SDS011;41355;50.390;19.096;2022-12-07T02:57:00;110.82;;;34.45;;
55493;SDS011;41355;50.390;19.096;2022-12-07T03:02:12;106.43;;;31.73;;
55493;SDS011;41355;50.390;19.096;2022-12-07T03:04:42;83.95;;;23.63;;
55493;SDS011;41355;50.390;19.096;2022-12-07T03:12:44;31.63;;;12.25;;
55493;SDS011;41355;50.390;19.096;2022-12-07T03:15:13;90.00;;;25.65;;
55493;SDS011;41355;50.390;19.096;2022-12-07T03:17:40;67.18;;;21.85;;
55493;SDS011;41355;50.390;19.096;2022-12-07T03:20:09;41.40;;;12.70;;
55493;SDS011;41355;50.390;19.096;2022-12-07T03:22:37;120.50;;;32.13;;
55493;SDS011;41355;50.390;19.096;2022-12-07T03:25:05;36.97;;;13.18;;
55493;SDS011;41355;50.390;19.096;2022-12-07T03:27:33;60.25;;;19.75;;
55493;SDS011;41355;50.390;19.096;2022-12-07T03:30:01;64.05;;;21.75;;
55493;SDS011;41355;50.390;19.096;2022-12-07T03:32:36;78.68;;;23.20;;
55493;SDS011;41355;50.390;19.096;2022-12-07T03:37:49;105.93;;;30.25;;
55493;SDS011;41355;50.390;19.096;2022-12-07T03:40:22;32.88;;;12.38;;
55493;SDS011;41355;50.390;19.096;2022-12-07T03:42:50;50.88;;;17.38;;
55493;SDS011;41355;50.390;19.096;2022-12-07T03:45:18;70.32;;;20.70;;
55493;SDS011;41355;50.390;19.096;2022-12-07T03:50:13;65.13;;;21.13;;
55493;SDS011;41355;50.390;19.096;2022-12-07T03:52:48;34.83;;;12.63;;
55493;SDS011;41355;50.390;19.096;2022-12-07T03:57:43;94.65;;;26.77;;
55493;SDS011;41355;50.390;19.096;2022-12-07T04:00:10;73.82;;;21.00;;
55493;SDS011;41355;50.390;19.096;2022-12-07T04:02:37;76.32;;;27.15;;
55493;SDS011;41355;50.390;19.096;2022-12-07T04:05:03;94.03;;;26.90;;
55493;SDS011;41355;50.390;19.096;2022-12-07T04:07:29;67.38;;;18.13;;
55493;SDS011;41355;50.390;19.096;2022-12-07T04:09:55;196.07;;;44.80;;
55493;SDS011;41355;50.390;19.096;2022-12-07T04:12:22;25.70;;;12.35;;
55493;SDS011;41355;50.390;19.096;2022-12-07T04:14:48;41.28;;;13.90;;
55493;SDS011;41355;50.390;19.096;2022-12-07T04:17:14;188.57;;;40.33;;
55493;SDS011;41355;50.390;19.096;2022-12-07T04:19:40;91.78;;;27.63;;
55493;SDS011;41355;50.390;19.096;2022-12-07T04:22:06;105.75;;;27.80;;
55493;SDS011;41355;50.390;19.096;2022-12-07T04:24:33;74.50;;;23.15;;
55493;SDS011;41355;50.390;19.096;2022-12-07T04:26:59;52.25;;;17.17;;
55493;SDS011;41355;50.390;19.096;2022-12-07T04:29:25;81.43;;;23.98;;
55493;SDS011;41355;50.390;19.096;2022-12-07T04:31:51;49.03;;;19.17;;
55493;SDS011;41355;50.390;19.096;2022-12-07T04:34:18;41.58;;;17.25;;
55493;SDS011;41355;50.390;19.096;2022-12-07T04:36:45;25.02;;;10.73;;
55493;SDS011;41355;50.390;19.096;2022-12-07T04:39:21;55.85;;;18.92;;
55493;SDS011;41355;50.390;19.096;2022-12-07T04:41:47;69.82;;;20.98;;
55493;SDS011;41355;50.390;19.096;2022-12-07T04:44:14;44.28;;;17.23;;
55493;SDS011;41355;50.390;19.096;2022-12-07T04:46:41;99.93;;;26.77;;
55493;SDS011;41355;50.390;19.096;2022-12-07T04:49:07;65.25;;;22.23;;
55493;SDS011;41355;50.390;19.096;2022-12-07T04:51:33;65.90;;;19.52;;
55493;SDS011;41355;50.390;19.096;2022-12-07T04:53:59;57.05;;;19.33;;
55493;SDS011;41355;50.390;19.096;2022-12-07T04:56:25;37.33;;;14.02;;
55493;SDS011;41355;50.390;19.096;2022-12-07T04:58:52;83.63;;;24.55;;
55493;SDS011;41355;50.390;19.096;2022-12-07T05:01:18;52.50;;;19.17;;
55493;SDS011;41355;50.390;19.096;2022-12-07T05:03:45;90.18;;;35.03;;
55493;SDS011;41355;50.390;19.096;2022-12-07T05:06:11;108.32;;;40.00;;
55493;SDS011;41355;50.390;19.096;2022-12-07T05:08:38;49.50;;;21.60;;
55493;SDS011;41355;50.390;19.096;2022-12-07T05:11:05;57.35;;;24.40;;
55493;SDS011;41355;50.390;19.096;2022-12-07T05:13:31;69.18;;;24.90;;
55493;SDS011;41355;50.390;19.096;2022-12-07T05:15:57;29.05;;;13.10;;
55493;SDS011;41355;50.390;19.096;2022-12-07T05:18:23;32.28;;;13.93;;
55493;SDS011;41355;50.390;19.096;2022-12-07T05:20:50;46.00;;;14.93;;
55493;SDS011;41355;50.390;19.096;2022-12-07T05:23:16;53.17;;;18.40;;
55493;SDS011;41355;50.390;19.096;2022-12-07T05:25:42;31.73;;;11.98;;
55493;SDS011;41355;50.390;19.096;2022-12-07T05:28:09;28.10;;;11.52;;
55493;SDS011;41355;50.390;19.096;2022-12-07T05:30:35;49.05;;;17.48;;
55493;SDS011;41355;50.390;19.096;2022-12-07T05:33:01;54.05;;;21.33;;
55493;SDS011;41355;50.390;19.096;2022-12-07T05:35:27;45.03;;;17.63;;
55493;SDS011;41355;50.390;19.096;2022-12-07T05:37:54;19.58;;;9.10;;
55493;SDS011;41355;50.390;19.096;2022-12-07T05:40:20;19.90;;;9.18;;
55493;SDS011;41355;50.390;19.096;2022-12-07T05:42:46;36.05;;;11.95;;
55493;SDS011;41355;50.390;19.096;2022-12-07T05:45:12;45.80;;;16.15;;
55493;SDS011;41355;50.390;19.096;2022-12-07T05:47:38;38.13;;;16.10;;
55493;SDS011;41355;50.390;19.096;2022-12-07T05:50:04;34.00;;;13.70;;
55493;SDS011;41355;50.390;19.096;2022-12-07T05:52:31;40.67;;;14.25;;
55493;SDS011;41355;50.390;19.096;2022-12-07T05:54:57;25.38;;;9.55;;
55493;SDS011;41355;50.390;19.096;2022-12-07T05:57:23;27.60;;;13.25;;
55493;SDS011;41355;50.390;19.096;2022-12-07T05:59:49;28.70;;;12.60;;
55493;SDS011;41355;50.390;19.096;2022-12-07T06:02:16;49.50;;;19.20;;
55493;SDS011;41355;50.390;19.096;2022-12-07T06:04:43;30.85;;;13.13;;
55493;SDS011;41355;50.390;19.096;2022-12-07T06:07:10;36.83;;;14.02;;
55493;SDS011;41355;50.390;19.096;2022-12-07T06:09:37;37.00;;;15.25;;
55493;SDS011;41355;50.390;19.096;2022-12-07T06:12:03;29.67;;;12.15;;
55493;SDS011;41355;50.390;19.096;2022-12-07T06:17:13;37.67;;;11.77;;
55493;SDS011;41355;50.390;19.096;2022-12-07T06:19:39;23.27;;;11.00;;
55493;SDS011;41355;50.390;19.096;2022-12-07T06:22:05;43.58;;;16.10;;
55493;SDS011;41355;50.390;19.096;2022-12-07T06:24:32;27.30;;;11.45;;
55493;SDS011;41355;50.390;19.096;2022-12-07T06:26:58;20.80;;;10.15;;
55493;SDS011;41355;50.390;19.096;2022-12-07T06:29:25;46.13;;;14.82;;
55493;SDS011;41355;50.390;19.096;2022-12-07T06:31:51;65.28;;;26.30;;
55493;SDS011;41355;50.390;19.096;2022-12-07T06:34:18;28.83;;;12.35;;
55493;SDS011;41355;50.390;19.096;2022-12-07T06:36:44;41.63;;;15.93;;
55493;SDS011;41355;50.390;19.096;2022-12-07T06:39:12;27.98;;;11.52;;
55493;SDS011;41355;50.390;19.096;2022-12-07T06:41:38;31.90;;;13.45;;
55493;SDS011;41355;50.390;19.096;2022-12-07T06:44:05;56.15;;;22.48;;
55493;SDS011;41355;50.390;19.096;2022-12-07T06:46:31;27.38;;;10.45;;
55493;SDS011;41355;50.390;19.096;2022-12-07T06:48:57;64.82;;;25.50;;
55493;SDS011;41355;50.390;19.096;2022-12-07T06:51:23;106.32;;;36.33;;
55493;SDS011;41355;50.390;19.096;2022-12-07T06:53:49;28.55;;;14.77;;
55493;SDS011;41355;50.390;19.096;2022-12-07T06:56:15;31.80;;;13.77;;
55493;SDS011;41355;50.390;19.096;2022-12-07T06:58:41;85.90;;;31.92;;
55493;SDS011;41355;50.390;19.096;2022-12-07T07:01:11;55.38;;;20.35;;
55493;SDS011;41355;50.390;19.096;2022-12-07T07:03:38;43.78;;;19.17;;
55493;SDS011;41355;50.390;19.096;2022-12-07T07:06:04;23.20;;;10.10;;
55493;SDS011;41355;50.390;19.096;2022-12-07T07:08:30;23.27;;;9.70;;
55493;SDS011;41355;50.390;19.096;2022-12-07T07:10:56;34.10;;;14.27;;
55493;SDS011;41355;50.390;19.096;2022-12-07T07:13:22;81.78;;;28.73;;
55493;SDS011;41355;50.390;19.096;2022-12-07T07:15:48;42.80;;;14.73;;
55493;SDS011;41355;50.390;19.096;2022-12-07T07:18:14;29.50;;;12.02;;
55493;SDS011;41355;50.390;19.096;2022-12-07T07:20:40;59.85;;;21.70;;
55493;SDS011;41355;50.390;19.096;2022-12-07T07:23:06;105.15;;;34.35;;
55493;SDS011;41355;50.390;19.096;2022-12-07T07:25:33;54.10;;;20.23;;
55493;SDS011;41355;50.390;19.096;2022-12-07T07:27:59;45.20;;;16.45;;
55493;SDS011;41355;50.390;19.096;2022-12-07T07:30:25;71.03;;;24.15;;
55493;SDS011;41355;50.390;19.096;2022-12-07T07:32:51;41.45;;;16.73;;
55493;SDS011;41355;50.390;19.096;2022-12-07T07:35:17;43.65;;;16.38;;
55493;SDS011;41355;50.390;19.096;2022-12-07T07:37:43;40.83;;;15.95;;
55493;SDS011;41355;50.390;19.096;2022-12-07T07:40:09;64.65;;;24.23;;
55493;SDS011;41355;50.390;19.096;2022-12-07T07:42:35;38.33;;;15.93;;
55493;SDS011;41355;50.390;19.096;2022-12-07T07:45:01;63.78;;;24.75;;
55493;SDS011;41355;50.390;19.096;2022-12-07T07:47:27;41.50;;;18.23;;
55493;SDS011;41355;50.390;19.096;2022-12-07T07:49:54;57.50;;;25.65;;
55493;SDS011;41355;50.390;19.096;2022-12-07T07:52:20;63.65;;;21.75;;
55493;SDS011;41355;50.390;19.096;2022-12-07T07:54:46;35.72;;;14.25;;
55493;SDS011;41355;50.390;19.096;2022-12-07T07:57:12;51.45;;;19.02;;
55493;SDS011;41355;50.390;19.096;2022-12-07T07:59:38;35.35;;;14.15;;
55493;SDS011;41355;50.390;19.096;2022-12-07T08:02:04;38.35;;;15.82;;
55493;SDS011;41355;50.390;19.096;2022-12-07T08:04:30;35.30;;;15.10;;
55493;SDS011;41355;50.390;19.096;2022-12-07T08:06:56;47.85;;;20.40;;
55493;SDS011;41355;50.390;19.096;2022-12-07T08:09:22;101.03;;;35.63;;
55493;SDS011;41355;50.390;19.096;2022-12-07T08:11:48;31.65;;;14.93;;
55493;SDS011;41355;50.390;19.096;2022-12-07T08:14:14;26.98;;;13.00;;
55493;SDS011;41355;50.390;19.096;2022-12-07T08:16:40;32.50;;;17.40;;
55493;SDS011;41355;50.390;19.096;2022-12-07T08:19:07;34.95;;;17.73;;
55493;SDS011;41355;50.390;19.096;2022-12-07T08:21:33;37.75;;;16.15;;
55493;SDS011;41355;50.390;19.096;2022-12-07T08:23:59;37.20;;;15.43;;
55493;SDS011;41355;50.390;19.096;2022-12-07T08:26:25;51.55;;;20.38;;
55493;SDS011;41355;50.390;19.096;2022-12-07T08:28:52;93.15;;;37.05;;
55493;SDS011;41355;50.390;19.096;2022-12-07T08:31:18;104.25;;;42.60;;
55493;SDS011;41355;50.390;19.096;2022-12-07T08:33:45;56.78;;;25.02;;
55493;SDS011;41355;50.390;19.096;2022-12-07T08:36:11;56.55;;;25.27;;
55493;SDS011;41355;50.390;19.096;2022-12-07T08:38:38;45.15;;;20.02;;
55493;SDS011;41355;50.390;19.096;2022-12-07T08:41:04;40.50;;;18.08;;
55493;SDS011;41355;50.390;19.096;2022-12-07T08:43:30;58.30;;;20.52;;
55493;SDS011;41355;50.390;19.096;2022-12-07T08:46:02;87.22;;;35.40;;
55493;SDS011;41355;50.390;19.096;2022-12-07T08:48:29;130.05;;;42.20;;
55493;SDS011;41355;50.390;19.096;2022-12-07T08:50:57;80.95;;;24.10;;
55493;SDS011;41355;50.390;19.096;2022-12-07T08:53:23;125.63;;;42.75;;
55493;SDS011;41355;50.390;19.096;2022-12-07T08:55:49;74.80;;;27.02;;
55493;SDS011;41355;50.390;19.096;2022-12-07T08:58:15;94.15;;;30.27;;
55493;SDS011;41355;50.390;19.096;2022-12-07T09:00:41;104.93;;;33.38;;
55493;SDS011;41355;50.390;19.096;2022-12-07T09:03:07;197.85;;;52.60;;
55493;SDS011;41355;50.390;19.096;2022-12-07T09:05:33;119.30;;;32.67;;
55493;SDS011;41355;50.390;19.096;2022-12-07T09:08:00;162.23;;;47.53;;
55493;SDS011;41355;50.390;19.096;2022-12-07T09:10:27;72.15;;;27.58;;
55493;SDS011;41355;50.390;19.096;2022-12-07T09:12:53;56.28;;;21.90;;
55493;SDS011;41355;50.390;19.096;2022-12-07T09:15:19;107.93;;;42.58;;
55493;SDS011;41355;50.390;19.096;2022-12-07T09:17:45;116.20;;;49.38;;
55493;SDS011;41355;50.390;19.096;2022-12-07T09:20:11;72.90;;;31.10;;
55493;SDS011;41355;50.390;19.096;2022-12-07T09:22:37;29.17;;;15.00;;
55493;SDS011;41355;50.390;19.096;2022-12-07T09:25:03;84.40;;;29.77;;
55493;SDS011;41355;50.390;19.096;2022-12-07T09:27:30;64.15;;;23.25;;
55493;SDS011;41355;50.390;19.096;2022-12-07T09:29:56;41.50;;;18.25;;
55493;SDS011;41355;50.390;19.096;2022-12-07T09:32:22;51.42;;;20.70;;
55493;SDS011;41355;50.390;19.096;2022-12-07T09:34:48;60.67;;;23.70;;
55493;SDS011;41355;50.390;19.096;2022-12-07T09:37:14;82.55;;;32.58;;
55493;SDS011;41355;50.390;19.096;2022-12-07T09:39:40;63.72;;;29.65;;
55493;SDS011;41355;50.390;19.096;2022-12-07T09:42:06;83.35;;;32.58;;
55493;SDS011;41355;50.390;19.096;2022-12-07T09:44:33;256.05;;;88.72;;
55493;SDS011;41355;50.390;19.096;2022-12-07T09:47:00;82.65;;;29.92;;
55493;SDS011;41355;50.390;19.096;2022-12-07T09:49:30;131.05;;;52.97;;
55493;SDS011;41355;50.390;19.096;2022-12-07T09:54:47;123.22;;;40.85;;
55493;SDS011;41355;50.390;19.096;2022-12-07T09:57:14;37.38;;;14.95;;
55493;SDS011;41355;50.390;19.096;2022-12-07T09:59:40;22.55;;;10.95;;
55493;SDS011;41355;50.390;19.096;2022-12-07T10:04:50;76.00;;;26.58;;
55493;SDS011;41355;50.390;19.096;2022-12-07T10:07:16;107.78;;;39.38;;
55493;SDS011;41355;50.390;19.096;2022-12-07T10:09:42;71.45;;;29.13;;
55493;SDS011;41355;50.390;19.096;2022-12-07T10:12:09;31.70;;;16.48;;
55493;SDS011;41355;50.390;19.096;2022-12-07T10:14:40;132.50;;;61.13;;
55493;SDS011;41355;50.390;19.096;2022-12-07T10:17:26;72.28;;;31.02;;
55493;SDS011;41355;50.390;19.096;2022-12-07T10:20:05;58.90;;;22.98;;
55493;SDS011;41355;50.390;19.096;2022-12-07T10:22:37;62.15;;;26.20;;
55493;SDS011;41355;50.390;19.096;2022-12-07T10:25:18;69.28;;;28.42;;
55493;SDS011;41355;50.390;19.096;2022-12-07T10:27:44;62.35;;;23.23;;
55493;SDS011;41355;50.390;19.096;2022-12-07T10:30:23;114.82;;;34.63;;
55493;SDS011;41355;50.390;19.096;2022-12-07T10:32:51;76.47;;;28.85;;
55493;SDS011;41355;50.390;19.096;2022-12-07T10:35:21;59.28;;;24.17;;
55493;SDS011;41355;50.390;19.096;2022-12-07T10:37:48;143.45;;;48.28;;
55493;SDS011;41355;50.390;19.096;2022-12-07T10:45:43;82.03;;;29.17;;
55493;SDS011;41355;50.390;19.096;2022-12-07T11:06:10;22.90;;;9.98;;
55493;SDS011;41355;50.390;19.096;2022-12-07T11:16:36;25.70;;;14.45;;
55493;SDS011;41355;50.390;19.096;2022-12-07T11:19:12;37.25;;;18.98;;
55493;SDS011;41355;50.390;19.096;2022-12-07T11:21:43;24.98;;;12.68;;
55493;SDS011;41355;50.390;19.096;2022-12-07T11:24:15;35.17;;;17.45;;
55493;SDS011;41355;50.390;19.096;2022-12-07T11:37:13;127.72;;;47.08;;
55493;SDS011;41355;50.390;19.096;2022-12-07T11:39:51;47.75;;;21.58;;
55493;SDS011;41355;50.390;19.096;2022-12-07T11:42:22;68.50;;;29.35;;
55493;SDS011;41355;50.390;19.096;2022-12-07T11:52:22;41.72;;;19.27;;
55493;SDS011;41355;50.390;19.096;2022-12-07T11:54:51;40.85;;;19.38;;
55493;SDS011;41355;50.390;19.096;2022-12-07T11:57:31;31.95;;;16.83;;
55493;SDS011;41355;50.390;19.096;2022-12-07T12:00:01;32.70;;;15.13;;
55493;SDS011;41355;50.390;19.096;2022-12-07T12:02:32;33.67;;;16.63;;
55493;SDS011;41355;50.390;19.096;2022-12-07T12:07:29;32.20;;;15.02;;
55493;SDS011;41355;50.390;19.096;2022-12-07T12:10:02;22.83;;;11.63;;
55493;SDS011;41355;50.390;19.096;2022-12-07T12:23:19;14.60;;;7.75;;
55493;SDS011;41355;50.390;19.096;2022-12-07T12:25:47;32.25;;;10.25;;
55493;SDS011;41355;50.390;19.096;2022-12-07T12:28:49;36.75;;;16.08;;
55493;SDS011;41355;50.390;19.096;2022-12-07T12:31:07;18.20;;;9.73;;
55493;SDS011;41355;50.390;19.096;2022-12-07T12:33:35;24.27;;;10.40;;
55493;SDS011;41355;50.390;19.096;2022-12-07T12:46:49;34.50;;;15.02;;
55493;SDS011;41355;50.390;19.096;2022-12-07T12:59:18;11.25;;;5.07;;
55493;SDS011;41355;50.390;19.096;2022-12-07T13:01:48;20.27;;;7.78;;
55493;SDS011;41355;50.390;19.096;2022-12-07T13:06:46;32.28;;;12.98;;
55493;SDS011;41355;50.390;19.096;2022-12-07T13:09:27;42.40;;;19.02;;
55493;SDS011;41355;50.390;19.096;2022-12-07T13:12:15;67.18;;;31.40;;
55493;SDS011;41355;50.390;19.096;2022-12-07T13:14:41;24.92;;;11.48;;
55493;SDS011;41355;50.390;19.096;2022-12-07T13:17:11;27.90;;;12.40;;
55493;SDS011;41355;50.390;19.096;2022-12-07T13:27:44;11.77;;;5.57;;
55493;SDS011;41355;50.390;19.096;2022-12-07T13:30:17;19.60;;;9.32;;
55493;SDS011;41355;50.390;19.096;2022-12-07T13:32:43;20.48;;;9.82;;
55493;SDS011;41355;50.390;19.096;2022-12-07T13:37:54;29.50;;;14.95;;
55493;SDS011;41355;50.390;19.096;2022-12-07T13:40:21;126.70;;;52.15;;
55493;SDS011;41355;50.390;19.096;2022-12-07T13:42:47;36.90;;;18.08;;
55493;SDS011;41355;50.390;19.096;2022-12-07T13:45:32;55.20;;;27.33;;
55493;SDS011;41355;50.390;19.096;2022-12-07T13:50:59;119.60;;;56.42;;
55493;SDS011;41355;50.390;19.096;2022-12-07T13:53:26;24.67;;;11.23;;
55493;SDS011;41355;50.390;19.096;2022-12-07T13:55:58;20.35;;;11.52;;
55493;SDS011;41355;50.390;19.096;2022-12-07T13:58:25;32.00;;;15.02;;
55493;SDS011;41355;50.390;19.096;2022-12-07T14:00:52;30.80;;;15.95;;
55493;SDS011;41355;50.390;19.096;2022-12-07T14:05:44;12.93;;;6.10;;
55493;SDS011;41355;50.390;19.096;2022-12-07T14:10:41;25.00;;;11.55;;
55493;SDS011;41355;50.390;19.096;2022-12-07T14:15:52;36.67;;;16.50;;
55493;SDS011;41355;50.390;19.096;2022-12-07T14:18:29;40.60;;;16.25;;
55493;SDS011;41355;50.390;19.096;2022-12-07T14:23:37;84.20;;;33.35;;
55493;SDS011;41355;50.390;19.096;2022-12-07T14:26:21;292.30;;;85.57;;
55493;SDS011;41355;50.390;19.096;2022-12-07T14:31:15;108.35;;;31.15;;
55493;SDS011;41355;50.390;19.096;2022-12-07T14:33:41;74.78;;;28.25;;
55493;SDS011;41355;50.390;19.096;2022-12-07T14:36:11;41.28;;;16.52;;
55493;SDS011;41355;50.390;19.096;2022-12-07T14:38:37;73.10;;;30.25;;
55493;SDS011;41355;50.390;19.096;2022-12-07T14:41:04;44.15;;;20.23;;
55493;SDS011;41355;50.390;19.096;2022-12-07T14:43:48;39.35;;;17.38;;
55493;SDS011;41355;50.390;19.096;2022-12-07T14:46:14;22.27;;;13.20;;
55493;SDS011;41355;50.390;19.096;2022-12-07T14:48:41;61.85;;;25.17;;
55493;SDS011;41355;50.390;19.096;2022-12-07T14:51:07;47.25;;;23.38;;
55493;SDS011;41355;50.390;19.096;2022-12-07T14:53:37;22.10;;;13.23;;
55493;SDS011;41355;50.390;19.096;2022-12-07T14:56:05;15.93;;;8.90;;
55493;SDS011;41355;50.390;19.096;2022-12-07T14:58:31;35.13;;;16.67;;
55493;SDS011;41355;50.390;19.096;2022-12-07T15:00:57;46.08;;;22.33;;
55493;SDS011;41355;50.390;19.096;2022-12-07T15:03:23;433.40;;;121.75;;
55493;SDS011;41355;50.390;19.096;2022-12-07T15:05:49;313.42;;;100.90;;
55493;SDS011;41355;50.390;19.096;2022-12-07T15:08:15;352.25;;;91.03;;
55493;SDS011;41355;50.390;19.096;2022-12-07T15:10:42;261.60;;;69.00;;
55493;SDS011;41355;50.390;19.096;2022-12-07T15:13:08;298.15;;;95.90;;
55493;SDS011;41355;50.390;19.096;2022-12-07T15:15:53;456.20;;;152.23;;
55493;SDS011;41355;50.390;19.096;2022-12-07T15:18:20;289.40;;;90.90;;
55493;SDS011;41355;50.390;19.096;2022-12-07T15:20:46;320.27;;;120.32;;
55493;SDS011;41355;50.390;19.096;2022-12-07T15:23:12;253.65;;;96.82;;
55493;SDS011;41355;50.390;19.096;2022-12-07T15:25:42;305.38;;;95.82;;
55493;SDS011;41355;50.390;19.096;2022-12-07T15:28:08;203.48;;;71.78;;
55493;SDS011;41355;50.390;19.096;2022-12-07T15:30:36;178.18;;;70.38;;
55493;SDS011;41355;50.390;19.096;2022-12-07T15:33:02;89.60;;;36.58;;
55493;SDS011;41355;50.390;19.096;2022-12-07T15:35:28;55.85;;;27.52;;
55493;SDS011;41355;50.390;19.096;2022-12-07T15:37:54;65.82;;;32.03;;
55493;SDS011;41355;50.390;19.096;2022-12-07T15:40:20;46.13;;;23.40;;
55493;SDS011;41355;50.390;19.096;2022-12-07T15:42:46;21.45;;;10.57;;
55493;SDS011;41355;50.390;19.096;2022-12-07T15:45:12;29.80;;;14.57;;
55493;SDS011;41355;50.390;19.096;2022-12-07T15:47:40;52.10;;;18.95;;
55493;SDS011;41355;50.390;19.096;2022-12-07T15:50:07;37.50;;;15.50;;
55493;SDS011;41355;50.390;19.096;2022-12-07T15:52:34;41.65;;;17.08;;
55493;SDS011;41355;50.390;19.096;2022-12-07T15:55:00;35.65;;;14.38;;
55493;SDS011;41355;50.390;19.096;2022-12-07T15:57:28;28.25;;;12.88;;
55493;SDS011;41355;50.390;19.096;2022-12-07T15:59:55;23.30;;;10.68;;
55493;SDS011;41355;50.390;19.096;2022-12-07T16:02:20;39.53;;;17.33;;
55493;SDS011;41355;50.390;19.096;2022-12-07T16:04:47;35.78;;;16.45;;
55493;SDS011;41355;50.390;19.096;2022-12-07T16:07:13;43.97;;;18.55;;
55493;SDS011;41355;50.390;19.096;2022-12-07T16:09:41;32.22;;;15.38;;
55493;SDS011;41355;50.390;19.096;2022-12-07T16:12:08;31.45;;;13.70;;
55493;SDS011;41355;50.390;19.096;2022-12-07T16:14:34;25.88;;;12.18;;
55493;SDS011;41355;50.390;19.096;2022-12-07T16:17:00;28.25;;;12.60;;
55493;SDS011;41355;50.390;19.096;2022-12-07T16:19:26;58.85;;;23.13;;
55493;SDS011;41355;50.390;19.096;2022-12-07T16:21:52;44.22;;;21.83;;
55493;SDS011;41355;50.390;19.096;2022-12-07T16:24:18;32.95;;;14.50;;
55493;SDS011;41355;50.390;19.096;2022-12-07T16:26:47;34.00;;;15.05;;
55493;SDS011;41355;50.390;19.096;2022-12-07T16:29:13;32.75;;;14.57;;
55493;SDS011;41355;50.390;19.096;2022-12-07T16:31:40;26.70;;;13.45;;
55493;SDS011;41355;50.390;19.096;2022-12-07T16:34:06;33.58;;;13.93;;
55493;SDS011;41355;50.390;19.096;2022-12-07T16:36:32;31.48;;;12.50;;
55493;SDS011;41355;50.390;19.096;2022-12-07T16:38:58;43.47;;;19.33;;
55493;SDS011;41355;50.390;19.096;2022-12-07T16:41:25;28.00;;;11.90;;